MMAS/AGU METAR and TAF weather

Enter ICAO airport designator
Station Type Date Time Source
MMAS METAR 2021/05/14 13:46 UTC NOAA

MMAS 141346Z 05006KT 10SM SCT100 BKN210 18/10 A3035 RMK 8/038 ISOL SC


Station Type Date Time Source
MMAS Decoded METAR 2021/05/14 13:46 UTC NOAA

Aguascalientes, Ags., Mexico (MMAS) 21-53N 102-18W
May 14, 2021 - 09:46 AM EDT / 2021.05.14 1346 UTC
Wind: from the NE (050 degrees) at 7 MPH (6 KT):0
Visibility: 10 mile(s):0
Sky conditions: mostly cloudy
Temperature: 64 F (18 C)
Dew Point: 50 F (10 C)
Relative Humidity: 59%
Pressure (altimeter): 30.35 in. Hg (1027 hPa)
ob: MMAS 141346Z 05006KT 10SM SCT100 BKN210 18/10 A3035 RMK 8/038 ISOL SC
cycle: 14

Station Type Date Time Source
MMAS TAF 2021/05/14 06:36 UTC NOAA

TAF TAF MMAS 140333Z 1406/1506 06005KT P6SM SCT030 BKN200
FM140900 06005KT P6SM SCT250
FM141800 08010KT P6SM SCT020 PROB40 1422/1502 5SM TSRA
FM150500 06005KT P6SM SCT030 BKN100

Example: see airport list